createdAt,value
2018-09-10T00:00:37.500Z,7.47
2018-09-10T00:03:06.731Z,7.77
2018-09-10T00:05:35.937Z,7.30
2018-09-10T00:08:05.604Z,7.80
2018-09-10T00:10:34.828Z,7.70
2018-09-10T00:13:04.151Z,7.80
2018-09-10T00:15:33.416Z,7.73
2018-09-10T00:18:02.694Z,7.70
2018-09-10T00:20:31.955Z,7.80
2018-09-10T00:23:01.280Z,7.70
2018-09-10T00:25:30.743Z,7.83
2018-09-10T00:28:00.107Z,8.40
2018-09-10T00:30:29.231Z,7.80
2018-09-10T00:32:58.368Z,7.50
2018-09-10T00:35:27.774Z,7.90
2018-09-10T00:37:57.030Z,8.10
2018-09-10T00:40:26.313Z,7.83
2018-09-10T00:42:55.630Z,8.13
2018-09-10T00:45:24.843Z,8.63
2018-09-10T00:47:53.887Z,7.97
2018-09-10T00:50:23.219Z,8.23
2018-09-10T00:52:52.647Z,8.83
2018-09-10T00:55:21.978Z,8.57
2018-09-10T00:57:51.215Z,8.93
2018-09-10T01:00:20.512Z,8.90
2018-09-10T01:02:49.519Z,8.77
2018-09-10T01:05:18.806Z,8.30
2018-09-10T01:07:48.111Z,8.73
2018-09-10T01:10:17.368Z,8.27
2018-09-10T01:12:46.819Z,8.30
2018-09-10T01:15:16.003Z,8.80
2018-09-10T01:17:45.075Z,8.23
2018-09-10T01:20:14.141Z,8.77
2018-09-10T01:22:43.238Z,8.30
2018-09-10T01:25:12.522Z,9.53
2018-09-10T01:27:41.734Z,9.17
2018-09-10T01:30:11.148Z,8.53
2018-09-10T01:32:40.483Z,9.03
2018-09-10T01:35:09.838Z,8.57
2018-09-10T01:37:38.806Z,8.83
2018-09-10T01:40:07.832Z,9.03
2018-09-10T01:42:37.067Z,9.17
2018-09-10T01:45:06.272Z,9.10
2018-09-10T01:47:35.461Z,8.73
2018-09-10T01:50:04.588Z,8.70
2018-09-10T01:52:33.863Z,9.23
2018-09-10T01:55:03.040Z,8.37
2018-09-10T01:57:32.215Z,9.47
2018-09-10T02:00:01.257Z,8.87
2018-09-10T02:02:30.435Z,9.10
2018-09-10T02:04:59.571Z,8.97
2018-09-10T02:07:28.881Z,9.07
2018-09-10T02:09:58.379Z,9.37
2018-09-10T02:12:27.781Z,8.80
2018-09-10T02:14:57.260Z,8.90
2018-09-10T02:17:26.708Z,9.73
2018-09-10T02:19:55.986Z,9.77
2018-09-10T02:22:25.183Z,9.27
2018-09-10T02:24:54.648Z,9.10
2018-09-10T02:27:23.829Z,9.67
2018-09-10T02:29:53.133Z,9.30
2018-09-10T02:32:22.449Z,9.70
2018-09-10T02:34:51.785Z,9.30
2018-09-10T02:37:20.982Z,9.03
2018-09-10T02:39:50.083Z,9.47
2018-09-10T02:42:19.469Z,9.97
2018-09-10T02:44:48.662Z,9.20
2018-09-10T02:47:18.027Z,9.37
2018-09-10T02:49:47.329Z,9.93
2018-09-10T02:52:16.416Z,9.70
2018-09-10T02:54:45.831Z,9.03
2018-09-10T02:57:15.068Z,9.73
2018-09-10T02:59:44.183Z,10.20
2018-09-10T03:02:13.616Z,9.27
2018-09-10T03:04:44.915Z,9.67
2018-09-10T03:07:15.339Z,9.37
2018-09-10T03:09:44.792Z,9.83
2018-09-10T03:12:14.240Z,10.07
2018-09-10T03:14:43.383Z,9.87
2018-09-10T03:17:12.468Z,9.17
2018-09-10T03:19:41.888Z,8.50
2018-09-10T03:22:11.027Z,9.87
2018-09-10T03:24:40.412Z,9.70
2018-09-10T03:27:09.552Z,9.80
2018-09-10T03:29:38.728Z,8.90
2018-09-10T03:32:08.380Z,9.40
2018-09-10T03:34:37.828Z,9.47
2018-09-10T03:37:07.128Z,9.87
2018-09-10T03:39:36.476Z,9.60
2018-09-10T03:42:05.680Z,9.57
2018-09-10T03:44:34.981Z,9.13
2018-09-10T03:47:04.308Z,9.60
2018-09-10T03:49:33.506Z,9.77
2018-09-10T03:52:02.535Z,9.37
2018-09-10T03:54:31.464Z,9.43
2018-09-10T03:57:00.470Z,9.43
2018-09-10T03:59:29.965Z,10.20
2018-09-10T04:01:59.166Z,9.27
2018-09-10T04:04:28.720Z,10.17
2018-09-10T04:06:58.048Z,8.67
2018-09-10T04:09:27.395Z,9.60
2018-09-10T04:11:56.900Z,9.80
2018-09-10T04:14:25.979Z,9.70
2018-09-10T04:16:55.020Z,10.50
2018-09-10T04:19:24.385Z,8.97
2018-09-10T04:21:53.691Z,9.70
2018-09-10T04:24:23.244Z,9.80
2018-09-10T04:26:52.701Z,9.87
2018-09-10T04:29:21.902Z,10.03
2018-09-10T04:31:51.067Z,9.40
2018-09-10T04:34:20.265Z,9.43
2018-09-10T04:36:49.241Z,9.27
2018-09-10T04:39:18.543Z,9.80
2018-09-10T04:41:47.847Z,9.60
2018-09-10T04:44:17.090Z,9.20
2018-09-10T04:46:46.440Z,9.70
2018-09-10T04:49:15.844Z,10.07
2018-09-10T04:51:45.184Z,9.60
2018-09-10T04:54:14.567Z,9.07
2018-09-10T04:56:43.617Z,9.20
2018-09-10T04:59:12.928Z,9.53
2018-09-10T05:01:42.118Z,9.87
2018-09-10T05:04:11.206Z,9.47
2018-09-10T05:06:40.436Z,10.20
2018-09-10T05:09:10.091Z,9.30
2018-09-10T05:11:39.520Z,9.93
2018-09-10T05:14:09.128Z,9.47
2018-09-10T05:31:01.049Z,10.27
2018-09-10T05:33:30.445Z,9.57
2018-09-10T05:35:59.751Z,9.97
2018-09-10T05:38:29.204Z,10.17
2018-09-10T05:40:58.467Z,9.23
2018-09-10T05:43:27.748Z,9.43
2018-09-10T05:45:56.896Z,9.23
2018-09-10T05:48:26.126Z,9.53
2018-09-10T05:50:55.489Z,8.93
2018-09-10T05:53:24.708Z,9.40
2018-09-10T05:55:53.941Z,9.10
2018-09-10T05:58:23.071Z,9.23
2018-09-10T06:00:52.485Z,9.10
2018-09-10T06:03:21.615Z,9.30
2018-09-10T06:05:50.982Z,9.27
2018-09-10T06:08:20.323Z,9.77
2018-09-10T06:10:49.776Z,9.40
2018-09-10T06:13:18.924Z,9.77
2018-09-10T06:15:48.348Z,9.03
2018-09-10T06:18:17.317Z,8.57
2018-09-10T06:20:46.784Z,9.67
2018-09-10T06:23:16.184Z,9.63
2018-09-10T06:25:45.592Z,9.43
2018-09-10T06:28:14.828Z,9.37
2018-09-10T06:30:44.127Z,9.50
2018-09-10T06:33:13.247Z,9.63
2018-09-10T06:35:42.467Z,8.87
2018-09-10T06:38:11.681Z,9.57
2018-09-10T06:40:41.117Z,9.43
2018-09-10T06:43:10.347Z,9.00
2018-09-10T06:45:39.509Z,9.07
2018-09-10T06:48:08.715Z,9.77
2018-09-10T06:50:37.968Z,9.23
2018-09-10T06:53:07.199Z,9.10
2018-09-10T06:55:36.459Z,8.97
2018-09-10T06:58:06.061Z,8.93
2018-09-10T07:00:35.339Z,8.70
2018-09-10T07:03:04.751Z,9.30
2018-09-10T07:05:33.945Z,9.30
2018-09-10T07:08:03.449Z,8.97
2018-09-10T07:10:32.843Z,8.53
2018-09-10T07:13:02.233Z,9.80
2018-09-10T07:15:31.843Z,9.13
2018-09-10T07:18:01.215Z,8.80
2018-09-10T07:20:30.171Z,8.83
2018-09-10T07:22:59.453Z,8.37
2018-09-10T07:25:28.803Z,8.30
2018-09-10T07:27:58.006Z,8.70
2018-09-10T07:30:27.340Z,8.20
2018-09-10T07:32:56.664Z,8.63
2018-09-10T07:35:25.937Z,8.53
2018-09-10T07:37:55.207Z,7.90
2018-09-10T07:40:24.383Z,8.03
2018-09-10T07:42:53.211Z,8.60
2018-09-10T07:45:22.276Z,8.63
2018-09-10T07:47:51.640Z,9.73
2018-09-10T07:50:20.994Z,14.00
2018-09-10T07:52:50.462Z,11.30
2018-09-10T07:55:19.700Z,9.03
2018-09-10T07:57:49.199Z,10.23
2018-09-10T08:00:18.518Z,10.27
2018-09-10T08:02:47.950Z,9.83
2018-09-10T08:05:17.316Z,8.20
2018-09-10T08:07:46.384Z,8.67
2018-09-10T08:10:15.693Z,8.00
2018-09-10T08:12:44.876Z,7.87
2018-09-10T08:15:14.135Z,7.43
2018-09-10T08:17:43.438Z,7.77
2018-09-10T08:20:12.915Z,7.63
2018-09-10T08:22:42.280Z,7.80
2018-09-10T08:25:11.701Z,7.33
2018-09-10T08:27:40.747Z,8.13
2018-09-10T08:30:10.156Z,7.47
2018-09-10T08:32:39.243Z,7.90
2018-09-10T08:35:08.632Z,7.77
2018-09-10T08:37:37.976Z,7.43
2018-09-10T08:40:07.139Z,7.27
2018-09-10T08:42:36.364Z,6.63
2018-09-10T08:45:05.965Z,6.60
2018-09-10T08:47:35.526Z,7.20
2018-09-10T08:50:04.885Z,6.77
2018-09-10T08:52:33.888Z,11.87
2018-09-10T08:55:03.355Z,9.47
2018-09-10T08:57:32.447Z,7.20
2018-09-10T09:00:01.641Z,6.80
2018-09-10T09:02:31.125Z,7.10
2018-09-10T09:05:00.661Z,6.90
2018-09-10T09:07:30.120Z,7.37
2018-09-10T09:09:59.516Z,6.80
2018-09-10T09:12:28.511Z,6.90
2018-09-10T09:14:57.940Z,6.37
2018-09-10T09:17:27.179Z,6.73
2018-09-10T09:19:56.616Z,6.80
2018-09-10T09:22:26.072Z,7.13
2018-09-10T09:24:55.417Z,6.40
2018-09-10T09:27:24.648Z,7.90
2018-09-10T09:29:53.863Z,6.50
2018-09-10T09:32:22.853Z,6.57
2018-09-10T09:34:56.707Z,6.50
2018-09-10T09:37:31.243Z,5.97
2018-09-10T09:40:05.684Z,6.67
2018-09-10T09:42:39.804Z,6.30
2018-09-10T09:45:13.996Z,5.80
2018-09-10T09:47:43.311Z,6.33
2018-09-10T09:50:12.640Z,6.17
2018-09-10T09:52:41.996Z,5.70
2018-09-10T09:55:10.985Z,5.50
2018-09-10T09:57:40.171Z,5.43
2018-09-10T10:00:14.211Z,5.40
2018-09-10T10:02:48.307Z,5.73
2018-09-10T10:05:17.516Z,5.40
2018-09-10T10:07:46.440Z,6.17
2018-09-10T10:10:15.791Z,5.47
2018-09-10T10:12:45.098Z,5.47
2018-09-10T10:15:14.516Z,5.80
2018-09-10T10:17:43.933Z,5.77
2018-09-10T10:20:13.316Z,5.72
2018-09-10T10:22:42.499Z,4.95
2018-09-10T10:25:11.815Z,5.72
2018-09-10T10:27:41.186Z,5.90
2018-09-10T10:30:10.479Z,5.73
2018-09-10T10:32:39.712Z,6.10
2018-09-10T10:35:08.921Z,5.50
2018-09-10T10:37:38.003Z,5.17
2018-09-10T10:40:07.303Z,5.37
2018-09-10T10:42:36.615Z,5.00
2018-09-10T10:45:05.904Z,4.95
2018-09-10T10:47:35.007Z,5.28
2018-09-10T10:50:04.379Z,4.65
2018-09-10T10:52:33.758Z,4.72
2018-09-10T10:55:03.029Z,4.90
2018-09-10T10:57:32.256Z,4.55
2018-09-10T11:00:01.215Z,4.87
2018-09-10T11:02:30.384Z,4.90
2018-09-10T11:04:59.544Z,5.05
2018-09-10T11:07:28.691Z,4.97
2018-09-10T11:09:58.040Z,4.80
2018-09-10T11:12:27.367Z,5.12
2018-09-10T11:14:56.580Z,4.90
2018-09-10T11:17:25.631Z,4.55
2018-09-10T11:19:54.905Z,4.40
2018-09-10T11:22:24.100Z,4.83
2018-09-10T11:24:53.527Z,5.12
2018-09-10T11:27:22.868Z,4.87
2018-09-10T11:29:51.998Z,4.80
2018-09-10T11:32:21.334Z,4.92
2018-09-10T11:34:50.303Z,4.90
2018-09-10T11:37:19.803Z,5.30
2018-09-10T11:39:49.104Z,4.97
2018-09-10T11:42:18.291Z,5.10
2018-09-10T11:44:47.634Z,5.60
2018-09-10T11:47:16.758Z,5.10
2018-09-10T11:49:46.139Z,4.90
2018-09-10T11:52:15.539Z,5.30
2018-09-10T11:54:44.692Z,4.83
2018-09-10T11:57:13.833Z,5.30
2018-09-10T11:59:42.827Z,5.30
2018-09-10T12:02:12.219Z,5.10
2018-09-10T12:04:41.384Z,5.60
2018-09-10T12:07:10.881Z,5.60
2018-09-10T12:09:40.235Z,5.17
2018-09-10T12:12:09.567Z,5.10
2018-09-10T12:14:38.835Z,5.20
2018-09-10T12:17:08.139Z,5.42
2018-09-10T12:19:37.179Z,5.35
2018-09-10T12:22:06.383Z,5.22
2018-09-10T12:24:35.500Z,5.00
2018-09-10T12:27:04.692Z,5.17
2018-09-10T12:29:34.160Z,5.33
2018-09-10T12:32:03.525Z,5.42
2018-09-10T12:34:32.796Z,5.08
2018-09-10T12:37:02.104Z,5.37
2018-09-10T12:39:31.222Z,5.42
2018-09-10T12:42:00.538Z,5.62
2018-09-10T12:44:29.941Z,5.65
2018-09-10T12:46:59.212Z,4.72
2018-09-10T12:49:28.628Z,4.87
2018-09-10T12:51:57.857Z,4.92
2018-09-10T12:54:27.239Z,5.65
2018-09-10T12:56:56.460Z,5.28
2018-09-10T12:59:25.902Z,5.42
2018-09-10T13:01:55.032Z,5.47
2018-09-10T13:04:24.188Z,5.67
2018-09-10T13:06:53.395Z,5.62
2018-09-10T13:09:22.607Z,5.47
2018-09-10T13:11:52.047Z,5.55
2018-09-10T13:14:21.356Z,5.40
2018-09-10T13:16:50.280Z,5.72
2018-09-10T13:19:19.201Z,5.78
2018-09-10T13:21:48.133Z,5.37
2018-09-10T13:24:17.455Z,5.47
2018-09-10T13:26:46.804Z,5.33
2018-09-10T13:29:15.993Z,5.55
2018-09-10T13:31:45.360Z,5.95
2018-09-10T13:34:14.599Z,5.47
2018-09-10T13:36:44.019Z,5.00
2018-09-10T13:39:13.564Z,5.83
2018-09-10T13:41:42.736Z,5.33
2018-09-10T13:44:12.100Z,5.77
2018-09-10T13:46:41.278Z,6.00
2018-09-10T13:49:10.392Z,5.90
2018-09-10T13:51:39.756Z,5.33
2018-09-10T13:54:09.015Z,5.70
2018-09-10T13:56:38.296Z,6.17
2018-09-10T13:59:07.742Z,6.00
2018-09-10T14:01:36.853Z,5.90
2018-09-10T14:04:06.136Z,5.33
2018-09-10T14:06:35.506Z,5.80
2018-09-10T14:09:06.048Z,6.13
2018-09-10T14:11:35.591Z,5.90
2018-09-10T14:14:04.671Z,6.20
2018-09-10T14:16:33.741Z,5.30
2018-09-10T14:21:41.829Z,4.93
2018-09-10T14:24:10.936Z,5.40
2018-09-10T14:26:40.227Z,5.13
2018-09-10T14:29:09.683Z,5.50
2018-09-10T14:31:39.139Z,5.90
2018-09-10T14:34:08.510Z,23.10
2018-09-10T14:36:37.787Z,6.37
2018-09-10T14:39:08.576Z,9.10
2018-09-10T14:41:37.814Z,5.57
2018-09-10T14:44:07.065Z,5.13
2018-09-10T14:46:36.028Z,5.60
2018-09-10T14:49:05.460Z,5.67
2018-09-10T14:51:34.861Z,5.20
2018-09-10T14:54:04.072Z,5.27
2018-09-10T14:56:33.460Z,6.13
2018-09-10T14:59:02.479Z,5.47
2018-09-10T15:01:31.525Z,5.57
2018-09-10T15:04:00.869Z,5.57
2018-09-10T15:06:30.112Z,6.23
2018-09-10T15:08:59.301Z,5.83
2018-09-10T15:11:28.594Z,5.40
2018-09-10T15:13:58.111Z,5.20
2018-09-10T15:16:27.591Z,5.27
2018-09-10T15:18:57.066Z,6.00
2018-09-10T15:21:26.443Z,6.40
2018-09-10T15:23:55.409Z,6.80
2018-09-10T15:26:24.844Z,6.30
2018-09-10T15:28:54.085Z,6.23
2018-09-10T15:31:23.231Z,6.30
2018-09-10T15:33:52.615Z,6.57
2018-09-10T15:36:22.085Z,7.87
2018-09-10T15:38:51.423Z,7.73
2018-09-10T15:41:20.896Z,7.40
2018-09-10T15:43:49.864Z,6.20
2018-09-10T15:46:18.980Z,6.70
2018-09-10T15:48:48.025Z,7.03
2018-09-10T15:51:17.423Z,6.33
2018-09-10T15:53:46.412Z,5.90
2018-09-10T15:56:15.638Z,6.57
2018-09-10T15:58:44.853Z,6.00
2018-09-10T16:01:14.189Z,6.80
2018-09-10T16:03:43.746Z,6.40
2018-09-10T16:06:13.033Z,6.30
2018-09-10T16:08:42.212Z,6.90
2018-09-10T16:11:11.580Z,7.03
2018-09-10T16:13:40.707Z,6.60
2018-09-10T16:16:10.028Z,6.50
2018-09-10T16:18:39.409Z,7.20
2018-09-10T16:21:08.324Z,6.93
2018-09-10T16:23:37.267Z,7.00
2018-09-10T16:26:06.627Z,7.30
2018-09-10T16:28:35.727Z,7.10
2018-09-10T16:31:04.935Z,7.73
2018-09-10T16:33:34.375Z,6.40
2018-09-10T16:36:03.822Z,6.90
2018-09-10T16:38:33.034Z,7.50
2018-09-10T16:41:02.159Z,7.63
2018-09-10T16:43:31.564Z,7.50
2018-09-10T16:46:00.523Z,7.37
2018-09-10T16:48:29.775Z,7.10
2018-09-10T16:50:59.070Z,7.33
2018-09-10T16:53:28.393Z,7.33
2018-09-10T16:55:57.711Z,7.40
2018-09-10T16:58:27.213Z,7.20
2018-09-10T17:00:56.411Z,7.20
2018-09-10T17:03:25.483Z,7.40
2018-09-10T17:05:54.579Z,7.03
2018-09-10T17:08:23.628Z,6.03
2018-09-10T17:10:52.491Z,6.17
2018-09-10T17:13:21.651Z,6.53
2018-09-10T17:15:51.027Z,6.67
2018-09-10T17:18:20.263Z,6.70
2018-09-10T17:20:49.518Z,6.93
2018-09-10T17:23:18.971Z,6.30
2018-09-10T17:25:52.085Z,6.33
2018-09-10T17:28:21.872Z,6.30
2018-09-10T17:30:51.679Z,6.43
2018-09-10T17:33:20.988Z,7.10
2018-09-10T17:35:50.354Z,7.50
2018-09-10T17:38:19.315Z,7.47
2018-09-10T17:40:48.677Z,9.50
2018-09-10T17:43:18.032Z,13.03
2018-09-10T17:45:47.367Z,10.07
2018-09-10T17:48:16.679Z,9.60
2018-09-10T17:50:45.931Z,8.07
2018-09-10T17:53:15.267Z,8.43
2018-09-10T17:55:44.504Z,9.07
2018-09-10T17:58:13.431Z,9.07
2018-09-10T18:00:46.105Z,8.90
2018-09-10T18:03:15.518Z,8.63
2018-09-10T18:05:45.215Z,7.07
2018-09-10T18:08:14.811Z,7.30
2018-09-10T18:10:44.289Z,7.37
2018-09-10T18:13:13.655Z,7.33
2018-09-10T18:15:42.949Z,7.23
2018-09-10T18:18:12.277Z,7.67
2018-09-10T18:20:41.620Z,6.77
2018-09-10T18:23:10.986Z,7.20
2018-09-10T18:25:39.984Z,6.77
2018-09-10T18:28:09.194Z,7.50
2018-09-10T18:30:39.767Z,6.87
2018-09-10T18:33:10.295Z,6.60
2018-09-10T18:35:39.608Z,7.27
2018-09-10T18:38:08.804Z,7.20
2018-09-10T18:40:38.089Z,6.77
2018-09-10T18:43:07.184Z,7.23
2018-09-10T18:45:36.427Z,7.20
2018-09-10T18:48:05.408Z,7.30
2018-09-10T18:50:34.628Z,6.80
2018-09-10T18:53:03.964Z,7.03
2018-09-10T18:55:33.207Z,6.73
2018-09-10T18:58:02.491Z,6.90
2018-09-10T19:00:31.775Z,6.40
2018-09-10T19:03:00.920Z,7.17
2018-09-10T19:05:30.280Z,7.60
2018-09-10T19:07:59.347Z,7.27
2018-09-10T19:10:28.303Z,7.53
2018-09-10T19:12:57.547Z,7.47
2018-09-10T19:15:26.716Z,7.53
2018-09-10T19:17:56.029Z,7.57
2018-09-10T19:20:25.463Z,7.30
2018-09-10T19:22:54.885Z,7.87
2018-09-10T19:25:24.188Z,6.50
2018-09-10T19:27:53.413Z,7.73
2018-09-10T19:30:22.704Z,6.97
2018-09-10T19:32:52.056Z,7.17
2018-09-10T19:35:21.322Z,7.60
2018-09-10T19:37:50.619Z,7.40
2018-09-10T19:40:19.667Z,7.80
2018-09-10T19:42:49.093Z,7.07
2018-09-10T19:45:18.491Z,7.23
2018-09-10T19:47:47.876Z,7.60
2018-09-10T19:50:17.392Z,6.90
2018-09-10T19:52:46.832Z,7.23
2018-09-10T19:55:16.185Z,7.53
2018-09-10T19:57:45.499Z,7.80
2018-09-10T20:00:14.833Z,7.20
2018-09-10T20:02:44.060Z,7.67
2018-09-10T20:05:13.044Z,6.90
2018-09-10T20:07:42.043Z,7.80
2018-09-10T20:10:11.077Z,7.53
2018-09-10T20:12:40.305Z,7.43
2018-09-10T20:15:09.404Z,7.73
2018-09-10T20:17:38.683Z,6.90
2018-09-10T20:20:08.392Z,7.13
2018-09-10T20:22:37.768Z,7.50
2018-09-10T20:25:07.316Z,7.03
2018-09-10T20:27:36.693Z,6.87
2018-09-10T20:30:06.400Z,7.00
2018-09-10T20:32:35.794Z,6.83
2018-09-10T20:35:05.078Z,7.10
2018-09-10T20:37:34.228Z,6.90
2018-09-10T20:40:03.587Z,6.00
2018-09-10T20:42:32.988Z,6.93
2018-09-10T20:45:02.299Z,7.10
2018-09-10T20:47:31.384Z,6.70
2018-09-10T20:50:00.372Z,6.90
2018-09-10T20:52:29.760Z,6.87
2018-09-10T20:54:59.015Z,6.87
2018-09-10T20:57:28.361Z,6.90
2018-09-10T20:59:57.826Z,6.70
2018-09-10T21:02:26.905Z,6.80
2018-09-10T21:04:56.021Z,6.70
2018-09-10T21:07:25.110Z,6.60
2018-09-10T21:09:54.387Z,6.73
2018-09-10T21:12:23.486Z,7.33
2018-09-10T21:14:52.849Z,6.77
2018-09-10T21:17:22.191Z,6.80
2018-09-10T21:19:51.438Z,6.53
2018-09-10T21:22:20.738Z,6.73
2018-09-10T21:24:50.259Z,6.67
2018-09-10T21:27:19.228Z,7.03
2018-09-10T21:29:48.377Z,6.83
2018-09-10T21:32:17.767Z,6.13
2018-09-10T21:34:46.778Z,6.50
2018-09-10T21:37:16.227Z,6.53
2018-09-10T21:39:45.588Z,7.03
2018-09-10T21:42:14.823Z,6.50
2018-09-10T21:44:44.009Z,6.83
2018-09-10T21:47:13.520Z,6.90
2018-09-10T21:49:42.981Z,7.07
2018-09-10T21:52:12.315Z,6.60
2018-09-10T21:54:41.469Z,7.17
2018-09-10T21:57:10.760Z,6.87
2018-09-10T21:59:40.024Z,6.90
2018-09-10T22:02:09.275Z,6.47
2018-09-10T22:04:38.570Z,6.73
2018-09-10T22:07:07.791Z,7.13
2018-09-10T22:09:37.253Z,6.53
2018-09-10T22:12:06.367Z,6.97
2018-09-10T22:14:35.864Z,6.63
2018-09-10T22:17:05.076Z,7.00
2018-09-10T22:19:34.364Z,7.17
2018-09-10T22:22:03.662Z,7.27
2018-09-10T22:24:32.997Z,6.73
2018-09-10T22:27:02.260Z,6.67
2018-09-10T22:29:31.684Z,6.47
2018-09-10T22:32:01.056Z,6.90
2018-09-10T22:34:30.411Z,6.87
2018-09-10T22:36:59.632Z,6.67
2018-09-10T22:39:28.893Z,6.53
2018-09-10T22:41:58.167Z,7.13
2018-09-10T22:44:28.516Z,6.77
2018-09-10T22:46:58.343Z,7.03
2018-09-10T22:49:27.632Z,7.23
2018-09-10T22:51:56.885Z,6.70
2018-09-10T22:54:26.250Z,7.27
2018-09-10T22:56:55.230Z,7.53
2018-09-10T22:59:24.347Z,7.30
2018-09-10T23:01:53.626Z,7.30
2018-09-10T23:04:22.876Z,6.97
2018-09-10T23:06:51.836Z,7.97
2018-09-10T23:09:20.992Z,7.63
2018-09-10T23:11:50.108Z,7.20
2018-09-10T23:14:19.243Z,7.23
2018-09-10T23:16:48.247Z,6.93
2018-09-10T23:19:17.487Z,6.77
2018-09-10T23:21:46.984Z,7.10
2018-09-10T23:24:15.882Z,7.43
2018-09-10T23:26:45.377Z,6.63
2018-09-10T23:29:14.206Z,7.80
2018-09-10T23:31:43.565Z,7.20
2018-09-10T23:34:12.836Z,7.17
2018-09-10T23:36:41.841Z,6.93
2018-09-10T23:39:10.928Z,6.63
2018-09-10T23:41:40.239Z,7.10
2018-09-10T23:44:09.759Z,6.60
2018-09-10T23:46:39.013Z,7.07
2018-09-10T23:49:08.095Z,7.37
2018-09-10T23:51:37.114Z,7.20
2018-09-10T23:54:06.308Z,7.23
2018-09-10T23:56:35.626Z,7.10
2018-09-10T23:59:04.989Z,7.23
